OOLO2: Oologah Lake

Data processed at Sun May 28 2017 22:02


All information presented herein is the property of the government of the United States of America and may be revised or deleted at any time without prior notice.
Dissemination of this information without the expressed written consent of the Public Affairs Office, Tulsa District U.S. Army Corps of Engineers is strictly prohibited.
These data are gathered electronically and, as presented, have not undergone any form of quality control. These data are not guaranteed to be valid or correct.
Go to home page.
Go to station list.
Go to home page.

Upstream stations:

Downstream station:
Previous Day
Next Day
Current Day
    
SHEF ID:       OOLO2     Oologah Lake
STATION TYPE:  RESERVOIR
Normal Pool:  Bottom =   592.00, Top =   638.00

               PRECIP  RIV-FLOW ELEVATION   STORAGE   TW-ELEV    INFLOW   RELEASE  AIR-TEMP  WIND-DIRWIND-SPEED REL-HUMID SOLAR-RAD   VOLTAGE  BAT-LOAD
                   in       cfs        ft     ac-ft        ft       cfs       cfs         F       deg       mph         %      W/m2      volt      volt
              Ccp-Rev   Ccp-Rev   Ccp-Rev   Ccp-Rev   Ccp-Rev  Regi-Rev  Regi-Rev   Ccp-Rev   Ccp-Rev   Ccp-Rev   Ccp-Rev   Ccp-Rev   Ccp-Rev   Ccp-Rev
(US/Central)
05/28 00:00      0.00      ----    652.87    995754     28.23      7408     22627     72.86    326.30      8.70     84.38      0.00     13.81     13.60
05/28 01:00      0.00      ----    652.84    994423     28.23      7545     22615     70.95    324.10     10.10     80.80      0.00     13.81     13.60
05/28 02:00      0.00      ----    652.81    993091     28.22       666     22605     69.96    315.80      9.90     80.29      0.00     13.81     13.60
05/28 03:00      0.00      ----    652.78    991759     28.23       490     22596     69.15    322.00      9.50     73.90      0.00     13.81     13.60
05/28 04:00      0.00      ----    652.73    989540     28.23       313     22584     68.77    330.60     12.00     75.35      0.00     13.81     13.60
05/28 05:00      0.00      ----    652.66    986433     28.23       162     22567     66.65    279.60      5.20     82.01      0.00     13.81     13.60
05/28 06:00      0.00      ----    652.60    983769     28.23        49     22548     65.66    275.10      6.70     87.54      0.00     13.81     13.60
05/28 07:00      0.00      ----    652.60    983769     28.23       212     22539     65.50    314.00      6.60     87.33      6.30     13.81     13.60
05/28 08:00      0.00      ----    652.54    981106     28.23       212     22530     66.31    326.40      6.20     83.43    158.50     13.81     13.60
05/28 09:00      0.00      ----    652.52    980218     28.22       212     22519     68.38    325.60      6.90     76.93    380.30     13.81     13.60
05/28 10:00      0.00      ----    652.46    977555     28.21       187     22507     69.46    336.30      7.60     71.14    610.60     13.81     13.60
05/28 11:00      0.00      ----    652.40    974892     28.20       162     22490     70.47    350.40      9.50     65.15    790.00     13.80     13.60
05/28 12:00      0.00      ----    652.36    973116     28.20       989     22475     72.18      0.40      4.40     64.45    906.90     13.80     13.60
05/28 13:00      0.00      ----    652.33    971784     28.19      1977     22465     74.30      8.50      2.00     58.31    993.20     13.81     13.44
05/28 14:00      0.00      ----    652.30    970453     28.19      2712     22456     75.31    359.00      4.20     52.66    826.30     13.81     13.60
05/28 15:00      0.00      ----    652.27    969121     28.18      2820     22447     77.50    301.30      7.20     46.32    831.60     13.81     13.60
05/28 16:00      0.00      ----    652.24    967789     28.19      2823     22438     78.69    296.90      6.90     45.47    672.90     13.81     13.60
05/28 17:00      0.00      ----    652.21    966458     28.18      1837     22430     80.01    299.80      7.90     39.09    672.50     13.81     13.60
05/28 18:00      0.00      ----    652.15    963794     28.18       850     22417     80.85    306.00      6.10     35.11    550.90     13.81     13.60
05/28 19:00      0.00      ----    652.12    962463     28.16       115     22403     80.87    311.00      6.40     32.67    340.80     13.81     13.60
05/28 20:00      0.00      ----    652.08    960687     28.16         6     22393     79.83    319.70      3.60     37.59    137.80     13.81     13.60
05/28 21:00      0.00      ----    652.03    958468     28.16         3     22380     77.31    319.10      2.00     45.97      5.80     13.81     13.60
05/28 22:00      0.00      ----    652.00    957136     28.15      ----      ----     73.69    134.10      1.10     51.94      0.00     13.81     13.60
05/28 23:00      ----      ----      ----      ----      ----      ----      ----      ----      ----      ----      ----      ----      ----      ----